Saturday, October 20, 2018, 6:42 AM EDT
Back to Local

KABE, Lehigh Valley International Airport

Location: Allentown, PA, United States Lat: 40.65
Local Time: 6:42 AM EDT (10:42 GMT) Lon: -75.45
Time Zone: US/Eastern Elev: 393 ft

Show me the last for .
Show Decoded

2018-10-20 05:51 METAR KABE 200951Z 25003KT 10SM FEW019 OVC040 12/09 A2975 RMK AO2 SLP073
                 T01170094 =
2018-10-20 04:51 METAR KABE 200851Z 21004KT 10SM OVC050 12/09 A2976 RMK AO2 RAE30 SLP078 P0001
                 60003 T01170094 56032 =
2018-10-20 03:51 METAR KABE 200751Z 22005KT 8SM -RA OVC060 12/09 A2978 RMK AO2 RAE20B38 SLP085
                 P0001 T01170089 =
2018-10-20 02:51 METAR KABE 200651Z 21005KT 10SM -RA OVC070 12/09 A2981 RMK AO2 SLP096 P0001
                 T01170089 =
2018-10-20 01:51 METAR KABE 200551Z 23005KT 10SM -RA OVC090 12/08 A2986 RMK AO2 SLP111 P0001
                 60001 T01170083 10133 20111 56021 =
2018-10-20 00:51 METAR KABE 200451Z 24003KT 10SM -RA SCT075 OVC100 12/07 A2987 RMK AO2 RAB48
                 SLP113 P0000 T01170072 401500011 =
2018-10-19 23:51 METAR KABE 200351Z 21010KT 10SM BKN120 13/07 A2989 RMK AO2 SLP120 T01330067 =
2018-10-19 22:51 METAR KABE 200251Z 21009KT 10SM CLR 13/06 A2992 RMK AO2 SLP132 T01280061 58028 =
2018-10-19 21:51 METAR KABE 200151Z 21009KT 10SM CLR 13/06 A2995 RMK AO2 SLP143 T01330061 =
2018-10-19 20:51 METAR KABE 200051Z AUTO 22010KT 10SM CLR 13/06 A2999 RMK AO2 SLP158 T01330061 =
2018-10-19 19:51 METAR KABE 192351Z AUTO 19008KT 10SM CLR 13/06 A3000 RMK AO2 SLP161 T01330056
                 10150 20128 58018 =
2018-10-19 18:51 METAR KABE 192251Z 20006KT 10SM CLR 13/05 A3003 RMK AO2 SLP171 T01330050 =
2018-10-19 17:51 METAR KABE 192151Z 20007KT 10SM CLR 14/03 A3004 RMK AO2 SLP175 T01390028 =
2018-10-19 16:51 METAR KABE 192051Z 21007KT 10SM CLR 14/02 A3006 RMK AO2 SLP180 T01440022 56037 =
2018-10-19 15:51 METAR KABE 191951Z 22012KT 10SM CLR 15/02 A3010 RMK AO2 SLP193 T01500017 =
2018-10-19 14:51 METAR KABE 191851Z 23011KT 10SM CLR 14/01 A3012 RMK AO2 SLP200 T01440006 =
2018-10-19 13:51 METAR KABE 191751Z 23013KT 10SM CLR 14/02 A3017 RMK AO2 SLP217 T01440017 10150
                 20017 58037 =
2018-10-19 12:51 METAR KABE 191651Z 24010G18KT 10SM CLR 14/03 A3022 RMK AO2 SLP234 T01440028 =
2018-10-19 11:51 METAR KABE 191551Z VRB06KT 10SM CLR 13/02 A3025 RMK AO2 SLP244 T01280017 =
2018-10-19 10:51 METAR KABE 191451Z 25011KT 10SM CLR 12/01 A3028 RMK AO2 SLP256 T01170011 58013 =
2018-10-19 09:51 METAR KABE 191351Z 22009KT 10SM CLR 09/02 A3030 RMK AO2 SLP264 T00940017 =
2018-10-19 08:51 METAR KABE 191251Z 22007KT 10SM CLR 06/01 A3031 RMK AO2 SLP268 T00610011 =
2018-10-19 07:51 METAR KABE 191151Z 00000KT 10SM CLR 02/M01 A3032 RMK AO2 SLP268 T00171006 10033
                 20011 50000 =
2018-10-19 06:51 METAR KABE 191051Z 24005KT 10SM CLR 02/M01 A3032 RMK AO2 SLP270 T00221011 =

Support USWX by starting your Amazon purchase here.